Terminal Aerodrome Forecast
Issued by NWS Blacksburg, VA

Home | Current Version | Previous Version | Text Only | Print | Product List | Glossary On
Versions: 1 2 3 4 5 6 7 8 9 10 11 12 13
000
FTUS41 KRNK 190520
TAFLYH
TAF
KLYH 190520Z 1906/2006 14006KT P6SM BKN200
     FM190900 VRB03KT P6SM -RA OVC040
      TEMPO 1911/1913 3SM RA OVC015
     FM191500 VRB03KT P6SM OVC025
     FM200000 18004KT 3SM BR OVC012=

USA.gov is the U.S. government's official web portal to all federal, state and local government web resources and services.